sensor_id;sensor_type;location;lat;lon;timestamp;temperature;humidity
41533;DHT22;27262;-35.248;149.138;2023-11-19T00:01:54;22.20;57.00
41533;DHT22;27262;-35.248;149.138;2023-11-19T00:04:24;22.30;57.10
41533;DHT22;27262;-35.248;149.138;2023-11-19T00:06:55;22.30;57.10
41533;DHT22;27262;-35.248;149.138;2023-11-19T00:09:31;22.30;57.00
41533;DHT22;27262;-35.248;149.138;2023-11-19T00:12:03;22.30;57.00
41533;DHT22;27262;-35.248;149.138;2023-11-19T00:14:34;22.30;57.00
41533;DHT22;27262;-35.248;149.138;2023-11-19T00:17:04;22.30;57.10
41533;DHT22;27262;-35.248;149.138;2023-11-19T00:19:34;22.30;57.00
41533;DHT22;27262;-35.248;149.138;2023-11-19T00:22:05;22.40;57.10
41533;DHT22;27262;-35.248;149.138;2023-11-19T00:24:35;22.40;57.10
41533;DHT22;27262;-35.248;149.138;2023-11-19T00:27:05;22.40;57.10
41533;DHT22;27262;-35.248;149.138;2023-11-19T00:29:37;22.40;57.10
41533;DHT22;27262;-35.248;149.138;2023-11-19T00:32:07;22.40;57.20
41533;DHT22;27262;-35.248;149.138;2023-11-19T00:34:37;22.40;57.20
41533;DHT22;27262;-35.248;149.138;2023-11-19T00:37:08;22.40;57.20
41533;DHT22;27262;-35.248;149.138;2023-11-19T00:39:39;22.40;57.20
41533;DHT22;27262;-35.248;149.138;2023-11-19T00:42:09;22.50;57.30
41533;DHT22;27262;-35.248;149.138;2023-11-19T00:44:43;22.50;57.30
41533;DHT22;27262;-35.248;149.138;2023-11-19T00:47:18;22.50;57.40
41533;DHT22;27262;-35.248;149.138;2023-11-19T00:49:52;22.50;57.50
41533;DHT22;27262;-35.248;149.138;2023-11-19T00:52:22;22.50;57.50
41533;DHT22;27262;-35.248;149.138;2023-11-19T00:54:56;22.50;57.60
41533;DHT22;27262;-35.248;149.138;2023-11-19T00:57:29;22.50;57.50
41533;DHT22;27262;-35.248;149.138;2023-11-19T01:00:00;22.60;57.80
41533;DHT22;27262;-35.248;149.138;2023-11-19T01:02:30;22.60;57.80
41533;DHT22;27262;-35.248;149.138;2023-11-19T01:05:08;22.60;57.80
41533;DHT22;27262;-35.248;149.138;2023-11-19T01:07:39;22.60;57.90
41533;DHT22;27262;-35.248;149.138;2023-11-19T01:10:09;22.60;57.90
41533;DHT22;27262;-35.248;149.138;2023-11-19T01:12:40;22.60;57.90
41533;DHT22;27262;-35.248;149.138;2023-11-19T01:15:10;22.60;57.90
41533;DHT22;27262;-35.248;149.138;2023-11-19T01:17:42;22.60;57.90
41533;DHT22;27262;-35.248;149.138;2023-11-19T01:20:15;22.70;58.10
41533;DHT22;27262;-35.248;149.138;2023-11-19T01:22:46;22.70;58.10
41533;DHT22;27262;-35.248;149.138;2023-11-19T01:25:18;22.70;58.10
41533;DHT22;27262;-35.248;149.138;2023-11-19T01:27:48;22.70;58.20
41533;DHT22;27262;-35.248;149.138;2023-11-19T01:30:19;22.70;58.20
41533;DHT22;27262;-35.248;149.138;2023-11-19T01:32:50;22.70;58.10
41533;DHT22;27262;-35.248;149.138;2023-11-19T01:35:20;22.80;58.30
41533;DHT22;27262;-35.248;149.138;2023-11-19T01:37:55;22.80;58.20
41533;DHT22;27262;-35.248;149.138;2023-11-19T01:40:26;22.80;58.20
41533;DHT22;27262;-35.248;149.138;2023-11-19T01:42:57;22.80;58.10
41533;DHT22;27262;-35.248;149.138;2023-11-19T01:45:31;22.80;58.10
41533;DHT22;27262;-35.248;149.138;2023-11-19T01:48:03;22.80;58.10
41533;DHT22;27262;-35.248;149.138;2023-11-19T01:50:34;22.80;58.10
41533;DHT22;27262;-35.248;149.138;2023-11-19T01:53:05;22.90;58.10
41533;DHT22;27262;-35.248;149.138;2023-11-19T01:55:35;22.90;58.10
41533;DHT22;27262;-35.248;149.138;2023-11-19T01:58:05;22.90;58.10
41533;DHT22;27262;-35.248;149.138;2023-11-19T02:00:37;22.90;58.10
41533;DHT22;27262;-35.248;149.138;2023-11-19T02:03:08;23.00;58.10
41533;DHT22;27262;-35.248;149.138;2023-11-19T02:05:39;23.00;58.20
41533;DHT22;27262;-35.248;149.138;2023-11-19T02:08:10;23.00;58.10
41533;DHT22;27262;-35.248;149.138;2023-11-19T02:10:43;23.00;58.20
41533;DHT22;27262;-35.248;149.138;2023-11-19T02:13:13;23.10;58.30
41533;DHT22;27262;-35.248;149.138;2023-11-19T02:15:45;23.10;58.30
41533;DHT22;27262;-35.248;149.138;2023-11-19T02:18:27;23.10;58.30
41533;DHT22;27262;-35.248;149.138;2023-11-19T02:20:58;23.10;58.20
41533;DHT22;27262;-35.248;149.138;2023-11-19T02:23:29;23.10;58.20
41533;DHT22;27262;-35.248;149.138;2023-11-19T02:28:38;23.20;58.00
41533;DHT22;27262;-35.248;149.138;2023-11-19T02:31:10;23.20;58.10
41533;DHT22;27262;-35.248;149.138;2023-11-19T02:33:41;23.20;58.00
41533;DHT22;27262;-35.248;149.138;2023-11-19T02:36:11;23.20;58.00
41533;DHT22;27262;-35.248;149.138;2023-11-19T02:38:41;23.20;58.00
41533;DHT22;27262;-35.248;149.138;2023-11-19T02:41:13;23.30;58.00
41533;DHT22;27262;-35.248;149.138;2023-11-19T02:43:44;23.30;58.00
41533;DHT22;27262;-35.248;149.138;2023-11-19T02:46:14;23.30;58.00
41533;DHT22;27262;-35.248;149.138;2023-11-19T02:48:47;23.30;58.00
41533;DHT22;27262;-35.248;149.138;2023-11-19T02:51:17;23.40;58.00
41533;DHT22;27262;-35.248;149.138;2023-11-19T02:53:48;23.40;58.00
41533;DHT22;27262;-35.248;149.138;2023-11-19T02:56:18;23.40;57.90
41533;DHT22;27262;-35.248;149.138;2023-11-19T02:58:55;23.40;57.90
41533;DHT22;27262;-35.248;149.138;2023-11-19T03:01:26;23.50;58.60
41533;DHT22;27262;-35.248;149.138;2023-11-19T03:04:01;23.50;57.90
41533;DHT22;27262;-35.248;149.138;2023-11-19T03:06:32;23.50;57.80
41533;DHT22;27262;-35.248;149.138;2023-11-19T03:09:02;23.50;57.70
41533;DHT22;27262;-35.248;149.138;2023-11-19T03:11:39;23.50;57.70
41533;DHT22;27262;-35.248;149.138;2023-11-19T03:14:09;23.60;57.60
41533;DHT22;27262;-35.248;149.138;2023-11-19T03:16:40;23.60;57.60
41533;DHT22;27262;-35.248;149.138;2023-11-19T03:19:10;23.60;57.60
41533;DHT22;27262;-35.248;149.138;2023-11-19T03:21:52;23.60;57.50
41533;DHT22;27262;-35.248;149.138;2023-11-19T03:24:23;23.60;57.50
41533;DHT22;27262;-35.248;149.138;2023-11-19T03:26:54;23.60;57.40
41533;DHT22;27262;-35.248;149.138;2023-11-19T03:29:26;23.70;57.40
41533;DHT22;27262;-35.248;149.138;2023-11-19T03:31:58;23.70;57.40
41533;DHT22;27262;-35.248;149.138;2023-11-19T03:34:28;23.70;57.40
41533;DHT22;27262;-35.248;149.138;2023-11-19T03:36:58;23.70;57.40
41533;DHT22;27262;-35.248;149.138;2023-11-19T03:39:29;23.70;57.40
41533;DHT22;27262;-35.248;149.138;2023-11-19T03:42:01;23.80;57.40
41533;DHT22;27262;-35.248;149.138;2023-11-19T03:44:33;23.80;57.40
41533;DHT22;27262;-35.248;149.138;2023-11-19T03:47:03;23.80;57.40
41533;DHT22;27262;-35.248;149.138;2023-11-19T03:49:34;23.80;57.40
41533;DHT22;27262;-35.248;149.138;2023-11-19T03:52:04;23.90;57.40
41533;DHT22;27262;-35.248;149.138;2023-11-19T03:54:47;23.90;57.40
41533;DHT22;27262;-35.248;149.138;2023-11-19T03:57:17;23.90;57.50
41533;DHT22;27262;-35.248;149.138;2023-11-19T03:59:48;23.90;57.60
41533;DHT22;27262;-35.248;149.138;2023-11-19T04:02:19;23.90;57.60
41533;DHT22;27262;-35.248;149.138;2023-11-19T04:04:49;24.00;57.70
41533;DHT22;27262;-35.248;149.138;2023-11-19T04:07:19;23.90;57.60
41533;DHT22;27262;-35.248;149.138;2023-11-19T04:09:50;24.00;57.70
41533;DHT22;27262;-35.248;149.138;2023-11-19T04:12:20;24.00;57.60
41533;DHT22;27262;-35.248;149.138;2023-11-19T04:14:51;24.10;57.70
41533;DHT22;27262;-35.248;149.138;2023-11-19T04:17:24;24.10;57.60
41533;DHT22;27262;-35.248;149.138;2023-11-19T04:19:55;24.10;57.70
41533;DHT22;27262;-35.248;149.138;2023-11-19T04:22:25;24.10;57.70
41533;DHT22;27262;-35.248;149.138;2023-11-19T04:24:55;24.10;57.70
41533;DHT22;27262;-35.248;149.138;2023-11-19T04:27:26;24.10;57.60
41533;DHT22;27262;-35.248;149.138;2023-11-19T04:29:56;24.20;57.70
41533;DHT22;27262;-35.248;149.138;2023-11-19T04:32:26;24.20;57.70
41533;DHT22;27262;-35.248;149.138;2023-11-19T04:34:59;24.20;57.70
41533;DHT22;27262;-35.248;149.138;2023-11-19T04:37:29;24.20;57.60
41533;DHT22;27262;-35.248;149.138;2023-11-19T04:40:00;24.20;57.60
41533;DHT22;27262;-35.248;149.138;2023-11-19T04:42:31;24.20;57.50
41533;DHT22;27262;-35.248;149.138;2023-11-19T04:45:02;24.30;57.50
41533;DHT22;27262;-35.248;149.138;2023-11-19T04:47:34;24.30;57.50
41533;DHT22;27262;-35.248;149.138;2023-11-19T04:50:05;24.30;57.50
41533;DHT22;27262;-35.248;149.138;2023-11-19T04:52:38;24.30;57.50
41533;DHT22;27262;-35.248;149.138;2023-11-19T04:55:14;24.30;57.50
41533;DHT22;27262;-35.248;149.138;2023-11-19T04:57:44;24.30;57.50
41533;DHT22;27262;-35.248;149.138;2023-11-19T05:00:16;24.30;57.50
41533;DHT22;27262;-35.248;149.138;2023-11-19T05:02:48;24.40;57.60
41533;DHT22;27262;-35.248;149.138;2023-11-19T05:05:18;24.40;57.60
41533;DHT22;27262;-35.248;149.138;2023-11-19T05:07:49;24.40;57.70
41533;DHT22;27262;-35.248;149.138;2023-11-19T05:10:20;24.50;57.80
41533;DHT22;27262;-35.248;149.138;2023-11-19T05:12:50;24.50;57.80
41533;DHT22;27262;-35.248;149.138;2023-11-19T05:15:21;24.50;57.90
41533;DHT22;27262;-35.248;149.138;2023-11-19T05:17:51;24.60;57.90
41533;DHT22;27262;-35.248;149.138;2023-11-19T05:20:21;24.60;57.90
41533;DHT22;27262;-35.248;149.138;2023-11-19T05:22:52;24.70;58.10
41533;DHT22;27262;-35.248;149.138;2023-11-19T05:25:22;24.70;58.10
41533;DHT22;27262;-35.248;149.138;2023-11-19T05:27:53;24.70;58.20
41533;DHT22;27262;-35.248;149.138;2023-11-19T05:30:24;24.80;58.30
41533;DHT22;27262;-35.248;149.138;2023-11-19T05:32:54;24.80;58.30
41533;DHT22;27262;-35.248;149.138;2023-11-19T05:35:24;24.80;58.40
41533;DHT22;27262;-35.248;149.138;2023-11-19T05:37:55;24.80;58.40
41533;DHT22;27262;-35.248;149.138;2023-11-19T05:40:25;24.80;58.50
41533;DHT22;27262;-35.248;149.138;2023-11-19T05:42:56;24.90;58.50
41533;DHT22;27262;-35.248;149.138;2023-11-19T05:45:26;24.90;58.60
41533;DHT22;27262;-35.248;149.138;2023-11-19T05:47:57;24.90;58.70
41533;DHT22;27262;-35.248;149.138;2023-11-19T05:50:27;24.90;58.70
41533;DHT22;27262;-35.248;149.138;2023-11-19T05:52:58;25.00;58.70
41533;DHT22;27262;-35.248;149.138;2023-11-19T05:55:28;25.00;58.70
41533;DHT22;27262;-35.248;149.138;2023-11-19T05:57:59;25.00;58.60
41533;DHT22;27262;-35.248;149.138;2023-11-19T06:00:30;25.00;58.60
41533;DHT22;27262;-35.248;149.138;2023-11-19T06:03:00;25.00;58.60
41533;DHT22;27262;-35.248;149.138;2023-11-19T06:05:31;25.10;58.60
41533;DHT22;27262;-35.248;149.138;2023-11-19T06:08:01;25.10;58.50
41533;DHT22;27262;-35.248;149.138;2023-11-19T06:10:31;25.10;58.50
41533;DHT22;27262;-35.248;149.138;2023-11-19T06:13:02;25.10;58.40
41533;DHT22;27262;-35.248;149.138;2023-11-19T06:15:34;25.10;58.40
41533;DHT22;27262;-35.248;149.138;2023-11-19T06:18:05;25.20;58.40
41533;DHT22;27262;-35.248;149.138;2023-11-19T06:20:35;25.20;58.40
41533;DHT22;27262;-35.248;149.138;2023-11-19T06:23:08;25.20;58.40
41533;DHT22;27262;-35.248;149.138;2023-11-19T06:25:38;25.20;58.30
41533;DHT22;27262;-35.248;149.138;2023-11-19T06:28:09;25.20;58.30
41533;DHT22;27262;-35.248;149.138;2023-11-19T06:30:39;25.30;58.30
41533;DHT22;27262;-35.248;149.138;2023-11-19T06:33:16;25.30;58.20
41533;DHT22;27262;-35.248;149.138;2023-11-19T06:35:46;25.30;58.20
41533;DHT22;27262;-35.248;149.138;2023-11-19T06:38:17;25.30;58.80
41533;DHT22;27262;-35.248;149.138;2023-11-19T06:40:47;25.40;58.20
41533;DHT22;27262;-35.248;149.138;2023-11-19T06:43:21;25.40;58.10
41533;DHT22;27262;-35.248;149.138;2023-11-19T06:45:52;25.40;58.00
41533;DHT22;27262;-35.248;149.138;2023-11-19T06:48:23;25.50;58.00
41533;DHT22;27262;-35.248;149.138;2023-11-19T06:50:53;25.40;57.90
41533;DHT22;27262;-35.248;149.138;2023-11-19T06:53:23;25.40;57.90
41533;DHT22;27262;-35.248;149.138;2023-11-19T06:55:54;25.50;57.90
41533;DHT22;27262;-35.248;149.138;2023-11-19T06:58:26;25.50;57.90
41533;DHT22;27262;-35.248;149.138;2023-11-19T07:00:56;25.50;57.90
41533;DHT22;27262;-35.248;149.138;2023-11-19T07:03:27;25.50;57.80
41533;DHT22;27262;-35.248;149.138;2023-11-19T07:05:57;25.50;57.70
41533;DHT22;27262;-35.248;149.138;2023-11-19T07:08:28;25.50;57.60
41533;DHT22;27262;-35.248;149.138;2023-11-19T07:10:59;25.50;57.50
41533;DHT22;27262;-35.248;149.138;2023-11-19T07:13:29;25.50;57.50
41533;DHT22;27262;-35.248;149.138;2023-11-19T07:15:59;25.60;57.40
41533;DHT22;27262;-35.248;149.138;2023-11-19T07:18:30;25.50;57.40
41533;DHT22;27262;-35.248;149.138;2023-11-19T07:21:01;25.50;57.20
41533;DHT22;27262;-35.248;149.138;2023-11-19T07:23:32;25.60;57.30
41533;DHT22;27262;-35.248;149.138;2023-11-19T07:26:05;25.50;57.10
41533;DHT22;27262;-35.248;149.138;2023-11-19T07:28:37;25.50;57.10
41533;DHT22;27262;-35.248;149.138;2023-11-19T07:31:09;25.60;57.10
41533;DHT22;27262;-35.248;149.138;2023-11-19T07:33:42;25.60;57.00
41533;DHT22;27262;-35.248;149.138;2023-11-19T07:36:13;25.60;56.90
41533;DHT22;27262;-35.248;149.138;2023-11-19T07:38:45;25.50;56.80
41533;DHT22;27262;-35.248;149.138;2023-11-19T07:41:16;25.60;56.70
41533;DHT22;27262;-35.248;149.138;2023-11-19T07:43:46;25.60;56.70
41533;DHT22;27262;-35.248;149.138;2023-11-19T07:46:17;25.60;56.50
41533;DHT22;27262;-35.248;149.138;2023-11-19T07:48:50;25.60;56.40
41533;DHT22;27262;-35.248;149.138;2023-11-19T07:51:20;25.60;56.40
41533;DHT22;27262;-35.248;149.138;2023-11-19T07:53:51;25.60;56.40
41533;DHT22;27262;-35.248;149.138;2023-11-19T07:56:22;25.60;56.40
41533;DHT22;27262;-35.248;149.138;2023-11-19T07:58:52;25.60;56.40
41533;DHT22;27262;-35.248;149.138;2023-11-19T08:01:23;25.60;56.30
41533;DHT22;27262;-35.248;149.138;2023-11-19T08:03:53;25.70;56.30
41533;DHT22;27262;-35.248;149.138;2023-11-19T08:06:26;25.70;56.30
41533;DHT22;27262;-35.248;149.138;2023-11-19T08:08:56;25.70;56.30
41533;DHT22;27262;-35.248;149.138;2023-11-19T08:11:27;25.70;56.40
41533;DHT22;27262;-35.248;149.138;2023-11-19T08:13:57;25.70;56.40
41533;DHT22;27262;-35.248;149.138;2023-11-19T08:16:27;25.70;56.40
41533;DHT22;27262;-35.248;149.138;2023-11-19T08:18:58;25.70;56.40
41533;DHT22;27262;-35.248;149.138;2023-11-19T08:21:28;25.70;56.40
41533;DHT22;27262;-35.248;149.138;2023-11-19T08:23:58;25.70;56.40
41533;DHT22;27262;-35.248;149.138;2023-11-19T08:26:29;25.70;56.40
41533;DHT22;27262;-35.248;149.138;2023-11-19T08:28:59;25.70;56.40
41533;DHT22;27262;-35.248;149.138;2023-11-19T08:31:29;25.70;57.00
41533;DHT22;27262;-35.248;149.138;2023-11-19T08:34:00;25.70;56.40
41533;DHT22;27262;-35.248;149.138;2023-11-19T08:36:30;25.80;56.40
41533;DHT22;27262;-35.248;149.138;2023-11-19T08:39:01;25.70;56.40
41533;DHT22;27262;-35.248;149.138;2023-11-19T08:41:32;25.80;56.50
41533;DHT22;27262;-35.248;149.138;2023-11-19T08:44:03;25.70;56.40
41533;DHT22;27262;-35.248;149.138;2023-11-19T08:46:33;25.80;56.50
41533;DHT22;27262;-35.248;149.138;2023-11-19T08:49:04;25.80;56.40
41533;DHT22;27262;-35.248;149.138;2023-11-19T08:51:34;25.80;56.40
41533;DHT22;27262;-35.248;149.138;2023-11-19T08:54:05;25.80;56.40
41533;DHT22;27262;-35.248;149.138;2023-11-19T08:56:35;25.80;56.40
41533;DHT22;27262;-35.248;149.138;2023-11-19T08:59:06;25.70;56.40
41533;DHT22;27262;-35.248;149.138;2023-11-19T09:01:36;25.80;56.40
41533;DHT22;27262;-35.248;149.138;2023-11-19T09:04:07;25.70;56.40
41533;DHT22;27262;-35.248;149.138;2023-11-19T09:06:37;25.70;56.40
41533;DHT22;27262;-35.248;149.138;2023-11-19T09:09:08;25.80;56.40
41533;DHT22;27262;-35.248;149.138;2023-11-19T09:11:39;25.80;56.40
41533;DHT22;27262;-35.248;149.138;2023-11-19T09:14:09;25.80;56.40
41533;DHT22;27262;-35.248;149.138;2023-11-19T09:16:39;25.80;56.40
41533;DHT22;27262;-35.248;149.138;2023-11-19T09:19:10;25.80;56.40
41533;DHT22;27262;-35.248;149.138;2023-11-19T09:21:40;25.80;56.40
41533;DHT22;27262;-35.248;149.138;2023-11-19T09:24:10;25.80;56.40
41533;DHT22;27262;-35.248;149.138;2023-11-19T09:26:43;25.80;56.40
41533;DHT22;27262;-35.248;149.138;2023-11-19T09:29:14;25.70;56.40
41533;DHT22;27262;-35.248;149.138;2023-11-19T09:31:44;25.80;56.40
41533;DHT22;27262;-35.248;149.138;2023-11-19T09:34:15;25.80;56.40
41533;DHT22;27262;-35.248;149.138;2023-11-19T09:36:45;25.80;56.40
41533;DHT22;27262;-35.248;149.138;2023-11-19T09:39:15;25.80;56.50
41533;DHT22;27262;-35.248;149.138;2023-11-19T09:41:47;25.70;56.50
41533;DHT22;27262;-35.248;149.138;2023-11-19T09:44:19;25.80;56.50
41533;DHT22;27262;-35.248;149.138;2023-11-19T09:46:50;25.80;56.50
41533;DHT22;27262;-35.248;149.138;2023-11-19T09:49:22;25.80;56.60
41533;DHT22;27262;-35.248;149.138;2023-11-19T09:51:57;25.70;56.50
41533;DHT22;27262;-35.248;149.138;2023-11-19T09:54:28;25.70;56.50
41533;DHT22;27262;-35.248;149.138;2023-11-19T09:56:59;25.70;56.50
41533;DHT22;27262;-35.248;149.138;2023-11-19T09:59:33;25.70;56.50
41533;DHT22;27262;-35.248;149.138;2023-11-19T10:02:03;25.70;56.50
41533;DHT22;27262;-35.248;149.138;2023-11-19T10:04:36;25.70;56.50
41533;DHT22;27262;-35.248;149.138;2023-11-19T10:07:06;25.70;56.50
41533;DHT22;27262;-35.248;149.138;2023-11-19T10:09:37;25.70;56.50
41533;DHT22;27262;-35.248;149.138;2023-11-19T10:12:07;25.70;56.60
41533;DHT22;27262;-35.248;149.138;2023-11-19T10:14:38;25.70;56.50
41533;DHT22;27262;-35.248;149.138;2023-11-19T10:17:09;25.70;56.60
41533;DHT22;27262;-35.248;149.138;2023-11-19T10:19:40;25.70;56.60
41533;DHT22;27262;-35.248;149.138;2023-11-19T10:22:11;25.70;56.60
41533;DHT22;27262;-35.248;149.138;2023-11-19T10:24:44;25.70;56.60
41533;DHT22;27262;-35.248;149.138;2023-11-19T10:27:23;25.60;56.60
41533;DHT22;27262;-35.248;149.138;2023-11-19T10:29:54;25.60;56.60
41533;DHT22;27262;-35.248;149.138;2023-11-19T10:32:24;25.60;56.60
41533;DHT22;27262;-35.248;149.138;2023-11-19T10:35:07;25.60;56.60
41533;DHT22;27262;-35.248;149.138;2023-11-19T10:37:38;25.60;56.60
41533;DHT22;27262;-35.248;149.138;2023-11-19T10:40:09;25.60;56.60
41533;DHT22;27262;-35.248;149.138;2023-11-19T10:42:41;25.60;56.70
41533;DHT22;27262;-35.248;149.138;2023-11-19T10:45:23;25.60;56.70
41533;DHT22;27262;-35.248;149.138;2023-11-19T10:47:57;25.60;56.60
41533;DHT22;27262;-35.248;149.138;2023-11-19T10:50:29;25.60;56.70
41533;DHT22;27262;-35.248;149.138;2023-11-19T10:53:00;25.50;56.70
41533;DHT22;27262;-35.248;149.138;2023-11-19T10:55:35;25.60;56.70
41533;DHT22;27262;-35.248;149.138;2023-11-19T10:58:10;25.50;56.60
41533;DHT22;27262;-35.248;149.138;2023-11-19T11:00:47;25.50;56.60
41533;DHT22;27262;-35.248;149.138;2023-11-19T11:03:20;25.50;56.60
41533;DHT22;27262;-35.248;149.138;2023-11-19T11:05:53;25.50;56.70
41533;DHT22;27262;-35.248;149.138;2023-11-19T11:08:26;25.50;56.70
41533;DHT22;27262;-35.248;149.138;2023-11-19T11:10:56;25.50;56.80
41533;DHT22;27262;-35.248;149.138;2023-11-19T11:13:32;25.50;56.80
41533;DHT22;27262;-35.248;149.138;2023-11-19T11:16:05;25.50;56.80
41533;DHT22;27262;-35.248;149.138;2023-11-19T11:18:37;25.50;56.80
41533;DHT22;27262;-35.248;149.138;2023-11-19T11:21:15;25.50;56.80
41533;DHT22;27262;-35.248;149.138;2023-11-19T11:24:19;25.50;56.80
41533;DHT22;27262;-35.248;149.138;2023-11-19T11:27:28;25.50;56.70
41533;DHT22;27262;-35.248;149.138;2023-11-19T11:38:37;25.40;56.80
41533;DHT22;27262;-35.248;149.138;2023-11-19T11:41:23;25.40;56.90
41533;DHT22;27262;-35.248;149.138;2023-11-19T11:43:57;25.40;56.80
41533;DHT22;27262;-35.248;149.138;2023-11-19T11:49:07;25.40;56.80
41533;DHT22;27262;-35.248;149.138;2023-11-19T11:52:01;25.40;56.80
41533;DHT22;27262;-35.248;149.138;2023-11-19T11:54:33;25.40;56.70
41533;DHT22;27262;-35.248;149.138;2023-11-19T11:57:08;25.40;56.80
41533;DHT22;27262;-35.248;149.138;2023-11-19T11:59:46;25.40;56.80
41533;DHT22;27262;-35.248;149.138;2023-11-19T12:02:19;25.40;56.80
41533;DHT22;27262;-35.248;149.138;2023-11-19T12:04:53;25.30;56.70
41533;DHT22;27262;-35.248;149.138;2023-11-19T12:07:24;25.30;56.80
41533;DHT22;27262;-35.248;149.138;2023-11-19T12:10:07;25.30;56.70
41533;DHT22;27262;-35.248;149.138;2023-11-19T12:12:38;25.40;56.70
41533;DHT22;27262;-35.248;149.138;2023-11-19T12:15:10;25.30;56.80
41533;DHT22;27262;-35.248;149.138;2023-11-19T12:17:41;25.30;56.80
41533;DHT22;27262;-35.248;149.138;2023-11-19T12:20:16;25.30;56.80
41533;DHT22;27262;-35.248;149.138;2023-11-19T12:23:05;25.30;56.80
41533;DHT22;27262;-35.248;149.138;2023-11-19T12:25:37;25.30;56.80
41533;DHT22;27262;-35.248;149.138;2023-11-19T12:28:12;25.30;56.80
41533;DHT22;27262;-35.248;149.138;2023-11-19T12:30:43;25.30;56.70
41533;DHT22;27262;-35.248;149.138;2023-11-19T12:33:14;25.30;56.80
41533;DHT22;27262;-35.248;149.138;2023-11-19T12:35:46;25.20;56.70
41533;DHT22;27262;-35.248;149.138;2023-11-19T12:38:24;25.20;56.70
41533;DHT22;27262;-35.248;149.138;2023-11-19T12:41:06;25.20;56.70
41533;DHT22;27262;-35.248;149.138;2023-11-19T12:43:37;25.20;56.70
41533;DHT22;27262;-35.248;149.138;2023-11-19T12:46:22;25.20;56.80
41533;DHT22;27262;-35.248;149.138;2023-11-19T12:48:53;25.20;56.70
41533;DHT22;27262;-35.248;149.138;2023-11-19T12:51:31;25.20;56.80
41533;DHT22;27262;-35.248;149.138;2023-11-19T12:54:03;25.20;56.70
41533;DHT22;27262;-35.248;149.138;2023-11-19T12:56:34;25.20;56.80
41533;DHT22;27262;-35.248;149.138;2023-11-19T12:59:12;25.20;56.80
41533;DHT22;27262;-35.248;149.138;2023-11-19T13:01:54;25.20;56.70
41533;DHT22;27262;-35.248;149.138;2023-11-19T13:04:29;25.20;56.70
41533;DHT22;27262;-35.248;149.138;2023-11-19T13:07:02;25.20;56.80
41533;DHT22;27262;-35.248;149.138;2023-11-19T13:09:34;25.10;56.70
41533;DHT22;27262;-35.248;149.138;2023-11-19T13:12:15;25.10;56.70
41533;DHT22;27262;-35.248;149.138;2023-11-19T13:14:46;25.10;56.60
41533;DHT22;27262;-35.248;149.138;2023-11-19T13:17:17;25.10;56.70
41533;DHT22;27262;-35.248;149.138;2023-11-19T13:19:47;25.10;56.70
41533;DHT22;27262;-35.248;149.138;2023-11-19T13:22:18;25.10;56.70
41533;DHT22;27262;-35.248;149.138;2023-11-19T13:24:49;25.10;56.80
41533;DHT22;27262;-35.248;149.138;2023-11-19T13:27:19;25.10;56.80
41533;DHT22;27262;-35.248;149.138;2023-11-19T13:29:49;25.10;56.80
41533;DHT22;27262;-35.248;149.138;2023-11-19T13:32:20;25.10;57.50
41533;DHT22;27262;-35.248;149.138;2023-11-19T13:34:50;25.00;56.80
41533;DHT22;27262;-35.248;149.138;2023-11-19T13:37:20;25.00;56.80
41533;DHT22;27262;-35.248;149.138;2023-11-19T13:39:51;25.00;56.80
41533;DHT22;27262;-35.248;149.138;2023-11-19T13:42:22;25.00;56.80
41533;DHT22;27262;-35.248;149.138;2023-11-19T13:44:52;25.00;56.80
41533;DHT22;27262;-35.248;149.138;2023-11-19T13:47:23;25.00;56.80
41533;DHT22;27262;-35.248;149.138;2023-11-19T13:49:53;24.90;56.70
41533;DHT22;27262;-35.248;149.138;2023-11-19T13:52:23;25.00;56.80
41533;DHT22;27262;-35.248;149.138;2023-11-19T13:54:54;25.00;56.80
41533;DHT22;27262;-35.248;149.138;2023-11-19T13:57:24;24.90;56.70
41533;DHT22;27262;-35.248;149.138;2023-11-19T13:59:54;24.90;56.70
41533;DHT22;27262;-35.248;149.138;2023-11-19T14:02:26;24.90;56.70
41533;DHT22;27262;-35.248;149.138;2023-11-19T14:04:56;24.90;56.70
41533;DHT22;27262;-35.248;149.138;2023-11-19T14:07:26;24.90;56.70
41533;DHT22;27262;-35.248;149.138;2023-11-19T14:09:57;24.90;56.70
41533;DHT22;27262;-35.248;149.138;2023-11-19T14:12:27;24.90;56.70
41533;DHT22;27262;-35.248;149.138;2023-11-19T14:14:58;24.90;56.70
41533;DHT22;27262;-35.248;149.138;2023-11-19T14:17:29;24.90;56.70
41533;DHT22;27262;-35.248;149.138;2023-11-19T14:20:00;24.90;56.70
41533;DHT22;27262;-35.248;149.138;2023-11-19T14:22:30;24.90;56.70
41533;DHT22;27262;-35.248;149.138;2023-11-19T14:25:00;24.90;56.70
41533;DHT22;27262;-35.248;149.138;2023-11-19T14:27:31;24.90;56.70
41533;DHT22;27262;-35.248;149.138;2023-11-19T14:30:01;24.80;56.70
41533;DHT22;27262;-35.248;149.138;2023-11-19T14:32:32;24.80;56.70
41533;DHT22;27262;-35.248;149.138;2023-11-19T14:35:03;24.80;56.60
41533;DHT22;27262;-35.248;149.138;2023-11-19T14:37:34;24.80;56.60
41533;DHT22;27262;-35.248;149.138;2023-11-19T14:40:05;24.80;56.70
41533;DHT22;27262;-35.248;149.138;2023-11-19T14:42:37;24.80;56.70
41533;DHT22;27262;-35.248;149.138;2023-11-19T14:45:08;24.80;56.70
41533;DHT22;27262;-35.248;149.138;2023-11-19T14:47:41;24.70;56.70
41533;DHT22;27262;-35.248;149.138;2023-11-19T14:50:11;24.80;56.70
41533;DHT22;27262;-35.248;149.138;2023-11-19T14:52:44;24.80;56.70
41533;DHT22;27262;-35.248;149.138;2023-11-19T14:55:15;24.80;56.70
41533;DHT22;27262;-35.248;149.138;2023-11-19T14:57:45;24.80;56.70
41533;DHT22;27262;-35.248;149.138;2023-11-19T15:00:28;24.80;56.70
41533;DHT22;27262;-35.248;149.138;2023-11-19T15:02:59;24.70;56.70
41533;DHT22;27262;-35.248;149.138;2023-11-19T15:05:30;24.70;56.70
41533;DHT22;27262;-35.248;149.138;2023-11-19T15:08:00;24.70;56.70
41533;DHT22;27262;-35.248;149.138;2023-11-19T15:10:30;24.70;56.70
41533;DHT22;27262;-35.248;149.138;2023-11-19T15:13:00;24.70;56.70
41533;DHT22;27262;-35.248;149.138;2023-11-19T15:15:31;24.70;56.60
41533;DHT22;27262;-35.248;149.138;2023-11-19T15:18:03;24.70;56.60
41533;DHT22;27262;-35.248;149.138;2023-11-19T15:20:33;24.70;56.60
41533;DHT22;27262;-35.248;149.138;2023-11-19T15:23:04;24.70;56.70
41533;DHT22;27262;-35.248;149.138;2023-11-19T15:25:36;24.70;56.60
41533;DHT22;27262;-35.248;149.138;2023-11-19T15:28:06;24.70;56.70
41533;DHT22;27262;-35.248;149.138;2023-11-19T15:30:37;24.70;56.60